Time;durP1;ratioP1;P1;durP2;ratioP2;P2;SDS_P1;SDS_P2;PMS_P1;PMS_P2;Temp;Humidity;BMP_temperature;BMP_pressure;BME280_temperature;BME280_humidity;BME280_pressure;Samples;Min_cycle;Max_cycle;Signal;HPM_P1;HPM_P2
2023/01/24 00:00:51;;;;;;;4.67;2.97;;;16.10;49.90;;;;;;5035445;28;20647;-80
2023/01/24 00:03:17;;;;;;;3.97;3.10;;;16.10;49.90;;;;;;5036929;28;20507;-81
2023/01/24 00:05:47;;;;;;;3.50;3.20;;;16.10;50.00;;;;;;5037005;28;20438;-80
2023/01/24 00:08:15;;;;;;;2.87;2.33;;;16.10;50.10;;;;;;5036881;28;20188;-80
2023/01/24 00:10:41;;;;;;;2.77;2.50;;;16.00;50.00;;;;;;5035666;28;20419;-80
2023/01/24 00:13:10;;;;;;;3.27;2.80;;;16.00;50.00;;;;;;5035104;28;20433;-80
2023/01/24 00:15:35;;;;;;;5.50;3.20;;;16.00;50.00;;;;;;5036302;28;20406;-80
2023/01/24 00:18:01;;;;;;;3.40;2.73;;;16.00;50.00;;;;;;5036201;28;20771;-80
2023/01/24 00:20:27;;;;;;;6.03;2.77;;;16.00;50.10;;;;;;5034880;28;20222;-80
2023/01/24 00:22:52;;;;;;;3.90;2.97;;;16.00;50.10;;;;;;5034952;28;20548;-80
2023/01/24 00:25:21;;;;;;;3.47;2.80;;;16.00;50.00;;;;;;5036097;28;20179;-80
2023/01/24 00:27:47;;;;;;;3.70;2.57;;;16.00;50.10;;;;;;5036244;28;20200;-81
2023/01/24 00:30:13;;;;;;;3.87;3.10;;;16.00;50.10;;;;;;5036292;28;20417;-80
2023/01/24 00:32:38;;;;;;;3.20;2.63;;;16.00;50.10;;;;;;5036067;28;20172;-80
2023/01/24 00:35:05;;;;;;;4.10;2.97;;;16.00;50.10;;;;;;5035979;28;20765;-81
2023/01/24 00:37:30;;;;;;;3.23;2.93;;;16.00;50.10;;;;;;5033938;28;20275;-81
2023/01/24 00:39:56;;;;;;;3.13;2.80;;;16.00;50.10;;;;;;5034557;28;20454;-86
2023/01/24 00:42:22;;;;;;;2.90;2.30;;;16.00;50.10;;;;;;5034660;28;20180;-86
2023/01/24 00:44:47;;;;;;;3.40;3.00;;;16.00;50.10;;;;;;5036393;28;20701;-86
2023/01/24 00:47:13;;;;;;;3.20;2.80;;;16.00;50.10;;;;;;5036523;28;20689;-86
2023/01/24 00:49:39;;;;;;;4.80;2.70;;;16.00;50.00;;;;;;5034678;28;20192;-86
2023/01/24 00:52:04;;;;;;;4.60;3.13;;;16.00;50.00;;;;;;5038111;28;20179;-85
2023/01/24 00:54:30;;;;;;;6.20;3.13;;;16.10;50.00;;;;;;5035147;28;20659;-87
2023/01/24 00:56:56;;;;;;;4.17;3.17;;;16.00;49.90;;;;;;5034492;28;20531;-86
2023/01/24 00:59:24;;;;;;;3.47;2.67;;;16.10;49.90;;;;;;5035757;28;20222;-87
2023/01/24 01:01:50;;;;;;;3.20;2.50;;;16.00;49.90;;;;;;5034946;28;20587;-86
2023/01/24 01:04:15;;;;;;;2.63;2.30;;;16.00;49.90;;;;;;5034176;28;20457;-85
2023/01/24 01:06:43;;;;;;;3.73;2.50;;;16.00;50.00;;;;;;5034270;28;20546;-86
2023/01/24 01:09:08;;;;;;;3.63;2.50;;;16.00;49.90;;;;;;5035656;28;20195;-86
2023/01/24 01:11:39;;;;;;;3.40;3.03;;;16.00;49.90;;;;;;5035591;28;20394;-85
2023/01/24 01:14:04;;;;;;;5.60;2.80;;;16.00;49.90;;;;;;5034231;28;20179;-86
2023/01/24 01:16:32;;;;;;;3.83;2.60;;;16.00;49.90;;;;;;5035810;28;20410;-86
2023/01/24 01:18:57;;;;;;;3.50;3.00;;;16.00;49.90;;;;;;5034095;28;20561;-87
2023/01/24 01:21:23;;;;;;;4.67;3.00;;;16.00;49.90;;;;;;5034356;28;20421;-85
2023/01/24 01:23:49;;;;;;;3.90;2.73;;;16.00;49.90;;;;;;5034760;28;20199;-86
2023/01/24 01:26:18;;;;;;;3.67;2.53;;;16.00;49.90;;;;;;5035787;28;20195;-86
2023/01/24 01:28:44;;;;;;;3.70;2.80;;;16.00;49.80;;;;;;5034149;28;20187;-86
2023/01/24 01:31:09;;;;;;;2.90;2.60;;;16.00;49.90;;;;;;5038855;28;20426;-86
2023/01/24 01:33:35;;;;;;;2.80;2.40;;;16.10;49.90;;;;;;5036698;28;20402;-86
2023/01/24 01:36:01;;;;;;;3.07;2.70;;;16.00;49.80;;;;;;5035569;28;20417;-86
2023/01/24 01:38:27;;;;;;;3.47;2.57;;;16.00;49.90;;;;;;5033814;28;20235;-86
2023/01/24 01:40:54;;;;;;;2.87;2.37;;;16.00;49.90;;;;;;5035230;28;20175;-86
2023/01/24 01:43:23;;;;;;;3.23;2.87;;;16.00;50.00;;;;;;5033887;28;20458;-86
2023/01/24 01:45:50;;;;;;;4.03;2.67;;;16.00;50.00;;;;;;5034474;28;20749;-84
2023/01/24 01:48:19;;;;;;;3.23;2.73;;;16.00;50.00;;;;;;5032861;28;20537;-85
2023/01/24 01:51:00;;;;;;;2.83;2.40;;;16.00;50.00;;;;;;5034390;28;20505;-85
2023/01/24 01:53:30;;;;;;;2.90;2.60;;;16.00;50.00;;;;;;5035171;28;20434;-87
2023/01/24 01:56:05;;;;;;;2.97;2.67;;;16.00;50.00;;;;;;5033926;28;20407;-86
2023/01/24 01:58:32;;;;;;;6.70;2.90;;;16.00;49.90;;;;;;5033745;28;20485;-85
2023/01/24 02:00:58;;;;;;;2.63;2.43;;;16.00;50.00;;;;;;5033252;28;20410;-86
2023/01/24 02:03:38;;;;;;;4.13;3.00;;;16.00;50.00;;;;;;5033374;28;20937;-85
2023/01/24 02:06:37;;;;;;;3.90;3.03;;;15.90;49.90;;;;;;5034649;28;20171;-86
2023/01/24 02:09:07;;;;;;;3.63;3.00;;;15.90;49.90;;;;;;5030544;28;20946;-87
2023/01/24 02:11:39;;;;;;;5.10;2.80;;;15.90;50.00;;;;;;5034188;28;20407;-87
2023/01/24 02:17:01;;;;;;;2.90;2.07;;;15.90;50.00;;;;;;5035449;28;20757;-85
2023/01/24 02:19:46;;;;;;;2.80;2.60;;;15.90;50.00;;;;;;5033729;28;20439;-86
2023/01/24 02:22:25;;;;;;;3.67;3.00;;;15.90;50.00;;;;;;5033624;28;20175;-86
2023/01/24 02:25:35;;;;;;;2.90;2.40;;;15.90;50.00;;;;;;5032929;28;20458;-86
2023/01/24 02:28:02;;;;;;;3.57;2.77;;;15.90;50.00;;;;;;5033710;28;20438;-84
2023/01/24 02:30:28;;;;;;;2.87;2.33;;;15.80;50.00;;;;;;5033172;28;20509;-85
2023/01/24 02:32:53;;;;;;;3.23;2.83;;;15.90;50.00;;;;;;5033996;28;20497;-85
2023/01/24 02:35:23;;;;;;;3.70;2.50;;;15.90;50.00;;;;;;5033863;28;20407;-85
2023/01/24 02:37:49;;;;;;;3.47;2.90;;;15.90;50.00;;;;;;5033259;28;20188;-86
2023/01/24 02:40:15;;;;;;;4.27;2.90;;;15.90;50.00;;;;;;5034190;28;20398;-86
2023/01/24 02:42:41;;;;;;;4.03;2.67;;;15.90;50.00;;;;;;5034163;28;20430;-87
2023/01/24 02:45:13;;;;;;;3.10;2.63;;;15.90;50.00;;;;;;5032613;28;20286;-85
2023/01/24 02:47:44;;;;;;;2.90;2.40;;;15.90;50.00;;;;;;5033684;28;20172;-86
2023/01/24 02:50:11;;;;;;;3.70;2.80;;;15.90;50.00;;;;;;5034200;28;20757;-87
2023/01/24 02:55:21;;;;;;;3.00;2.57;;;15.90;50.00;;;;;;5035652;28;20409;-86
2023/01/24 03:00:38;;;;;;;3.23;2.67;;;15.90;50.00;;;;;;5037048;28;20906;-85
2023/01/24 03:03:04;;;;;;;3.80;2.50;;;15.90;50.00;;;;;;5038859;28;20765;-86
2023/01/24 03:05:39;;;;;;;3.40;2.60;;;15.90;50.00;;;;;;5038929;28;20894;-84
2023/01/24 03:08:08;;;;;;;3.20;2.60;;;15.80;49.80;;;;;;5040635;28;20425;-84
2023/01/24 03:10:34;;;;;;;2.70;2.30;;;15.80;49.90;;;;;;5046611;28;20410;-85
2023/01/24 03:34:53;;;;;;;3.10;2.63;;;15.70;50.00;;;;;;5033640;28;20417;-86
2023/01/24 03:40:09;;;;;;;3.60;2.60;;;15.70;50.10;;;;;;5033355;28;20183;-86
2023/01/24 03:42:46;;;;;;;3.23;2.83;;;15.70;50.00;;;;;;5032400;28;20414;-86
2023/01/24 03:45:19;;;;;;;4.10;3.07;;;15.70;50.00;;;;;;5032138;28;20453;-86
2023/01/24 03:47:54;;;;;;;3.20;2.63;;;15.60;50.00;;;;;;5032802;28;20438;-87
2023/01/24 03:53:08;;;;;;;3.00;2.70;;;15.70;50.00;;;;;;5034415;28;20480;-87
2023/01/24 03:55:34;;;;;;;3.30;2.60;;;15.70;50.00;;;;;;5032227;28;20418;-87
2023/01/24 03:58:00;;;;;;;5.40;2.70;;;15.60;49.90;;;;;;5032028;28;20434;-86
2023/01/24 04:00:26;;;;;;;3.40;2.63;;;15.70;50.00;;;;;;5032045;28;20422;-87
2023/01/24 04:02:52;;;;;;;2.90;2.37;;;15.70;50.00;;;;;;5033134;28;20413;-79
2023/01/24 04:05:20;;;;;;;2.80;2.30;;;15.70;50.00;;;;;;5032831;28;20789;-80
2023/01/24 04:07:46;;;;;;;3.20;2.90;;;15.70;50.00;;;;;;5031524;28;20515;-80
2023/01/24 04:10:13;;;;;;;3.23;2.60;;;15.70;50.00;;;;;;5033080;28;20415;-81
2023/01/24 04:12:39;;;;;;;2.87;2.30;;;15.60;49.80;;;;;;5036335;28;20816;-81
2023/01/24 04:15:05;;;;;;;2.90;2.60;;;15.70;49.90;;;;;;5036364;28;20398;-81
2023/01/24 04:17:31;;;;;;;3.30;2.27;;;15.70;49.90;;;;;;5036511;28;20457;-81
2023/01/24 04:19:57;;;;;;;3.03;2.70;;;15.70;49.90;;;;;;5036521;28;20410;-79
2023/01/24 04:22:22;;;;;;;3.80;2.70;;;15.70;49.90;;;;;;5035192;28;20176;-79
2023/01/24 04:24:48;;;;;;;3.40;2.77;;;15.70;49.90;;;;;;5036813;28;20200;-79
2023/01/24 04:27:14;;;;;;;3.50;2.80;;;15.60;49.80;;;;;;5036754;28;20539;-80
2023/01/24 04:29:43;;;;;;;3.53;2.73;;;15.70;49.90;;;;;;5035396;28;20191;-80
2023/01/24 04:32:08;;;;;;;3.47;2.77;;;15.70;49.90;;;;;;5036523;28;20438;-79
2023/01/24 04:34:34;;;;;;;3.30;2.70;;;15.60;49.80;;;;;;5036872;28;20445;-81
2023/01/24 04:37:00;;;;;;;3.90;2.47;;;15.60;49.80;;;;;;5035856;28;20651;-85
2023/01/24 04:39:25;;;;;;;3.37;2.60;;;15.70;49.90;;;;;;5035651;28;20215;-86
2023/01/24 04:41:51;;;;;;;2.63;2.43;;;15.70;49.80;;;;;;5036183;28;20175;-87
2023/01/24 04:44:17;;;;;;;2.53;2.17;;;15.70;49.80;;;;;;5035921;28;20203;-85
2023/01/24 04:46:42;;;;;;;3.10;2.40;;;15.70;49.80;;;;;;5036007;28;20251;-87
2023/01/24 04:49:08;;;;;;;3.47;3.17;;;15.70;49.90;;;;;;5036155;28;20199;-86
2023/01/24 04:51:34;;;;;;;3.23;2.40;;;15.70;49.90;;;;;;5036141;28;20167;-87
2023/01/24 04:53:59;;;;;;;3.80;2.70;;;15.70;49.90;;;;;;5036380;28;20211;-87
2023/01/24 04:56:27;;;;;;;3.80;2.57;;;15.70;49.80;;;;;;5036207;28;20229;-86
2023/01/24 04:58:53;;;;;;;3.73;2.80;;;15.70;49.80;;;;;;5034408;28;20563;-86
2023/01/24 05:01:18;;;;;;;2.90;2.30;;;15.80;50.40;;;;;;5035798;28;20403;-87
2023/01/24 05:03:44;;;;;;;5.90;2.40;;;15.80;49.80;;;;;;5034270;28;20253;-86
2023/01/24 05:06:10;;;;;;;2.83;2.40;;;15.80;49.80;;;;;;5035531;28;20219;-86
2023/01/24 05:08:35;;;;;;;3.33;2.40;;;15.80;49.70;;;;;;5034345;28;20199;-87
2023/01/24 05:11:02;;;;;;;3.27;2.97;;;15.80;49.70;;;;;;5034505;28;20639;-87
2023/01/24 05:13:28;;;;;;;3.27;2.70;;;15.80;49.60;;;;;;5034040;28;20265;-85
2023/01/24 05:15:56;;;;;;;2.87;2.23;;;15.70;49.60;;;;;;5035806;28;20556;-87
2023/01/24 05:18:22;;;;;;;4.80;2.60;;;15.80;49.60;;;;;;5034077;28;20274;-86
2023/01/24 05:20:48;;;;;;;3.73;2.63;;;15.70;49.60;;;;;;5035380;28;21040;-87
2023/01/24 05:23:14;;;;;;;3.20;2.30;;;15.80;49.70;;;;;;5034188;28;20207;-86
2023/01/24 05:25:39;;;;;;;3.30;2.43;;;15.70;49.70;;;;;;5035484;28;20175;-85
2023/01/24 05:28:05;;;;;;;3.37;2.60;;;15.80;49.70;;;;;;5035313;28;20183;-86
2023/01/24 05:30:30;;;;;;;3.00;2.30;;;15.70;49.60;;;;;;5035642;28;20577;-86
2023/01/24 05:32:57;;;;;;;3.40;2.47;;;15.80;49.60;;;;;;5034072;28;20167;-86
2023/01/24 05:35:23;;;;;;;2.83;2.50;;;15.70;49.50;;;;;;5034160;28;20602;-86
2023/01/24 05:37:49;;;;;;;3.13;2.50;;;15.70;49.50;;;;;;5034618;28;20488;-86
2023/01/24 05:40:16;;;;;;;3.03;2.73;;;15.70;49.50;;;;;;5033469;28;20931;-86
2023/01/24 05:42:42;;;;;;;2.30;2.10;;;15.70;49.60;;;;;;5034520;28;20421;-86
2023/01/24 05:45:09;;;;;;;3.00;2.37;;;15.70;49.60;;;;;;5034312;28;20450;-86
2023/01/24 05:47:34;;;;;;;2.83;2.40;;;15.70;49.60;;;;;;5034274;28;20403;-86
2023/01/24 05:50:00;;;;;;;3.87;2.70;;;15.70;49.60;;;;;;5034479;28;20414;-87
2023/01/24 05:52:26;;;;;;;2.67;2.30;;;15.70;49.60;;;;;;5034186;28;20186;-87
2023/01/24 05:54:52;;;;;;;3.10;2.57;;;15.60;49.50;;;;;;5034482;28;20622;-87
2023/01/24 05:57:18;;;;;;;4.23;2.73;;;15.60;49.60;;;;;;5033072;28;20179;-86
2023/01/24 05:59:44;;;;;;;2.90;2.40;;;15.60;49.60;;;;;;5034505;28;20438;-87
2023/01/24 06:02:12;;;;;;;3.07;2.70;;;15.60;49.60;;;;;;5034160;28;20403;-86
2023/01/24 06:04:37;;;;;;;4.00;2.53;;;15.60;49.60;;;;;;5032978;28;20539;-86
2023/01/24 06:07:03;;;;;;;2.70;2.23;;;15.60;49.70;;;;;;5034442;28;20461;-87
2023/01/24 06:09:29;;;;;;;3.40;3.10;;;15.60;49.70;;;;;;5033592;28;20223;-87
2023/01/24 06:11:55;;;;;;;3.33;2.73;;;15.60;49.70;;;;;;5034478;28;20666;-85
2023/01/24 06:14:21;;;;;;;3.20;2.70;;;15.60;49.70;;;;;;5034250;28;20399;-87
2023/01/24 06:16:47;;;;;;;2.90;2.50;;;15.60;49.80;;;;;;5033692;28;20207;-87
2023/01/24 06:19:14;;;;;;;2.97;2.30;;;15.60;49.70;;;;;;5033368;28;20574;-86
2023/01/24 06:21:43;;;;;;;3.00;2.67;;;15.60;49.70;;;;;;5034897;28;20906;-86
2023/01/24 06:24:30;;;;;;;4.90;4.40;;;15.60;50.50;;;;;;5034290;28;20454;-87
2023/01/24 06:26:57;;;;;;;7.83;4.87;;;15.80;51.90;;;;;;5035360;28;20415;-88
2023/01/24 06:29:22;;;;;;;7.87;6.40;;;15.70;51.20;;;;;;5034567;28;20484;-83
2023/01/24 06:32:15;;;;;;;8.60;5.47;;;15.80;54.60;;;;;;5032893;28;20914;-84
2023/01/24 06:35:13;;;;;;;14.00;6.07;;;16.00;55.30;;;;;;5033312;28;20172;-87
2023/01/24 06:37:48;;;;;;;10.30;5.80;;;16.20;54.20;;;;;;5032348;28;20557;-87
2023/01/24 06:40:20;;;;;;;9.60;5.70;;;16.30;52.00;;;;;;5032887;28;20428;-87
2023/01/24 06:42:46;;;;;;;8.60;5.57;;;16.40;50.70;;;;;;5032467;28;20498;-88
2023/01/24 06:45:12;;;;;;;7.23;4.77;;;16.50;50.10;;;;;;5034153;28;20880;-86
2023/01/24 06:47:39;;;;;;;5.10;4.50;;;16.50;49.50;;;;;;5032978;28;20468;-88
2023/01/24 06:50:19;;;;;;;5.30;4.60;;;16.60;49.20;;;;;;5032998;28;20448;-87
2023/01/24 06:52:46;;;;;;;7.80;4.50;;;16.60;48.80;;;;;;5032977;28;20528;-88
2023/01/24 06:56:06;;;;;;;;;;;;;;;;;;;;;
2023/01/24 06:58:52;;;;;;;3.70;3.20;;;16.60;48.50;;;;;;4992739;28;20806;-92
2023/01/24 07:01:28;;;;;;;6.13;3.97;;;16.50;48.30;;;;;;5034094;28;20406;-90
2023/01/24 07:07:07;;;;;;;3.27;2.97;;;16.50;48.00;;;;;;4948967;29;20421;-92
2023/01/24 07:09:58;;;;;;;4.30;3.30;;;16.50;48.00;;;;;;5023956;28;20430;-91
2023/01/24 07:12:29;;;;;;;4.83;3.47;;;16.50;48.10;;;;;;5023881;28;20419;-87
2023/01/24 07:14:55;;;;;;;8.33;4.10;;;16.40;48.00;;;;;;5033764;28;20775;-90
2023/01/24 07:17:21;;;;;;;5.23;3.50;;;16.40;48.10;;;;;;5033423;28;20426;-89
2023/01/24 07:19:47;;;;;;;4.83;3.70;;;16.40;48.00;;;;;;5033947;28;20171;-88
2023/01/24 07:22:13;;;;;;;3.40;2.87;;;16.40;47.90;;;;;;5032508;28;20415;-87
2023/01/24 07:24:40;;;;;;;4.77;2.90;;;16.40;48.10;;;;;;5032448;28;20548;-87
2023/01/24 07:27:06;;;;;;;4.93;3.10;;;16.40;48.80;;;;;;5032375;28;20489;-87
2023/01/24 07:29:32;;;;;;;7.63;3.20;;;16.40;48.80;;;;;;5032449;28;20430;-86
2023/01/24 07:31:58;;;;;;;4.40;3.00;;;16.30;48.60;;;;;;5032699;28;20471;-87
2023/01/24 07:34:23;;;;;;;4.67;3.20;;;16.30;48.40;;;;;;5033723;28;20179;-86
2023/01/24 07:36:49;;;;;;;5.80;4.03;;;16.30;48.40;;;;;;5032306;28;20180;-86
2023/01/24 07:39:15;;;;;;;5.23;3.43;;;16.20;48.30;;;;;;5033567;28;20207;-87
2023/01/24 07:41:43;;;;;;;6.53;3.00;;;16.20;48.30;;;;;;5032753;28;20182;-87
2023/01/24 07:44:09;;;;;;;4.53;3.23;;;16.20;48.30;;;;;;5034161;28;20456;-87
2023/01/24 07:46:36;;;;;;;5.10;3.00;;;16.20;48.30;;;;;;5035818;28;20825;-86
2023/01/24 07:49:02;;;;;;;4.67;3.17;;;16.10;48.30;;;;;;5037481;28;20642;-87
2023/01/24 07:51:28;;;;;;;4.30;2.67;;;16.10;48.40;;;;;;5036224;28;20476;-87
2023/01/24 07:53:54;;;;;;;4.13;2.97;;;16.10;48.40;;;;;;5036059;28;20445;-88
2023/01/24 07:56:22;;;;;;;3.83;2.90;;;16.10;49.00;;;;;;5036181;28;20230;-86
2023/01/24 07:58:47;;;;;;;4.80;3.33;;;16.00;48.40;;;;;;5036117;28;20196;-86
2023/01/24 08:01:20;;;;;;;4.43;4.03;;;16.00;48.40;;;;;;5036289;28;21036;-85
2023/01/24 08:03:46;;;;;;;4.17;3.63;;;16.00;48.40;;;;;;5037709;28;20191;-86
2023/01/24 08:06:12;;;;;;;4.13;3.00;;;16.00;48.40;;;;;;5037368;28;20409;-85
2023/01/24 08:08:38;;;;;;;4.60;3.00;;;16.00;48.40;;;;;;5037212;28;20492;-82
2023/01/24 08:11:04;;;;;;;4.00;3.40;;;15.90;48.30;;;;;;5036925;28;20164;-85
2023/01/24 08:13:29;;;;;;;4.00;2.87;;;15.90;48.30;;;;;;5041544;28;20723;-82
2023/01/24 08:15:55;;;;;;;3.70;2.70;;;15.90;48.30;;;;;;5035761;28;20184;-81
2023/01/24 08:18:21;;;;;;;4.17;3.10;;;15.90;48.40;;;;;;5036725;28;20274;-83
2023/01/24 08:20:46;;;;;;;4.80;3.33;;;15.90;48.80;;;;;;5036898;28;20171;-87
2023/01/24 08:23:12;;;;;;;3.23;2.43;;;15.90;48.90;;;;;;5037277;28;20659;-86
2023/01/24 08:25:38;;;;;;;3.40;2.50;;;15.90;48.80;;;;;;5035629;28;20176;-87
2023/01/24 08:28:03;;;;;;;3.80;3.20;;;15.90;48.50;;;;;;5036723;28;20183;-85
2023/01/24 08:30:29;;;;;;;4.13;2.87;;;15.80;48.30;;;;;;5037324;28;20198;-86
2023/01/24 08:33:03;;;;;;;4.00;2.57;;;15.80;48.30;;;;;;5037111;28;20176;-85
2023/01/24 08:35:32;;;;;;;3.70;2.77;;;15.80;48.30;;;;;;5041221;28;20198;-88
2023/01/24 08:37:58;;;;;;;4.00;2.83;;;15.80;48.80;;;;;;5041371;28;20439;-91
2023/01/24 08:40:25;;;;;;;5.30;3.03;;;15.80;48.70;;;;;;5037660;28;20422;-82
2023/01/24 08:42:51;;;;;;;6.20;3.40;;;15.80;48.90;;;;;;5036150;28;20407;-85
2023/01/24 08:45:16;;;;;;;3.10;2.63;;;15.80;49.00;;;;;;5035474;28;20490;-84
2023/01/24 08:47:42;;;;;;;4.43;3.30;;;15.80;48.30;;;;;;5036583;28;20438;-85
2023/01/24 08:50:09;;;;;;;6.50;3.10;;;15.80;48.10;;;;;;5035241;28;20178;-88
2023/01/24 08:52:35;;;;;;;5.90;3.10;;;15.80;48.00;;;;;;5036562;28;20188;-89
2023/01/24 08:55:00;;;;;;;4.10;3.27;;;15.80;48.20;;;;;;5035474;28;20421;-82
2023/01/24 08:57:26;;;;;;;4.23;2.77;;;15.80;48.20;;;;;;5034692;28;20180;-80
2023/01/24 08:59:53;;;;;;;4.17;2.97;;;15.80;48.40;;;;;;5034735;28;20278;-81
2023/01/24 09:02:18;;;;;;;4.07;3.03;;;15.80;48.50;;;;;;5034690;28;20172;-80
2023/01/24 09:04:44;;;;;;;3.53;2.60;;;15.80;48.30;;;;;;5036194;28;20864;-82
2023/01/24 09:07:13;;;;;;;6.67;3.23;;;15.90;48.30;;;;;;5036485;28;20210;-83
2023/01/24 09:09:38;;;;;;;3.87;2.90;;;15.90;48.20;;;;;;5036007;28;20282;-81
2023/01/24 09:12:04;;;;;;;5.77;3.23;;;15.90;47.90;;;;;;5035699;28;20493;-81
2023/01/24 09:14:30;;;;;;;4.73;2.80;;;15.90;47.70;;;;;;5036342;28;20585;-78
2023/01/24 09:17:15;;;;;;;6.00;4.10;;;15.90;47.70;;;;;;5042351;28;20410;-78
2023/01/24 09:19:47;;;;;;;5.37;3.40;;;15.90;47.70;;;;;;5052827;28;20285;-86
2023/01/24 09:22:13;;;;;;;9.10;3.87;;;16.00;47.80;;;;;;5050518;28;20410;-86
2023/01/24 09:24:45;;;;;;;8.97;3.37;;;16.00;47.80;;;;;;5035406;28;20798;-84
2023/01/24 09:27:11;;;;;;;3.40;2.77;;;16.00;47.80;;;;;;5036135;28;20562;-85
2023/01/24 09:29:37;;;;;;;3.50;2.90;;;16.00;47.70;;;;;;5034653;28;20434;-84
2023/01/24 09:32:02;;;;;;;3.73;3.00;;;16.00;47.70;;;;;;5034406;28;20179;-85
2023/01/24 09:34:28;;;;;;;3.37;2.80;;;16.00;47.70;;;;;;5034716;28;20179;-85
2023/01/24 09:36:54;;;;;;;4.73;3.37;;;16.00;47.70;;;;;;5035851;28;20175;-85
2023/01/24 09:39:19;;;;;;;6.60;3.63;;;16.00;47.80;;;;;;5033943;28;20200;-84
2023/01/24 09:42:21;;;;;;;5.13;2.97;;;16.00;47.70;;;;;;5033625;28;20190;-84
2023/01/24 09:45:08;;;;;;;3.57;3.03;;;16.00;47.70;;;;;;5033706;28;20210;-84
2023/01/24 09:47:51;;;;;;;6.47;3.90;;;16.00;47.70;;;;;;5034362;28;20454;-86
2023/01/24 09:50:35;;;;;;;3.87;3.10;;;16.00;47.70;;;;;;5035394;28;20402;-85
2023/01/24 09:53:01;;;;;;;4.47;3.53;;;16.00;47.70;;;;;;5033865;28;20442;-85
2023/01/24 09:55:29;;;;;;;4.50;3.80;;;16.00;47.60;;;;;;5035182;28;20428;-86
2023/01/24 09:58:01;;;;;;;3.83;3.43;;;16.00;47.50;;;;;;5033956;28;20445;-85
2023/01/24 10:00:34;;;;;;;6.10;3.27;;;16.00;47.40;;;;;;5033766;28;20505;-86
2023/01/24 10:03:00;;;;;;;5.37;3.30;;;16.00;47.40;;;;;;5033716;28;20469;-85
2023/01/24 10:05:36;;;;;;;4.83;3.77;;;16.00;47.20;;;;;;5034040;28;20461;-86
2023/01/24 10:08:14;;;;;;;5.17;4.20;;;16.00;47.00;;;;;;5033498;28;20438;-86
2023/01/24 10:11:01;;;;;;;4.70;3.30;;;16.00;46.90;;;;;;5034282;28;20910;-86
2023/01/24 10:13:51;;;;;;;4.93;3.97;;;16.00;46.90;;;;;;5035629;28;20963;-85
2023/01/24 10:16:54;;;;;;;4.07;3.40;;;16.00;46.80;;;;;;5035504;28;20786;-84
2023/01/24 10:19:26;;;;;;;5.23;3.50;;;16.00;46.80;;;;;;5043647;28;20510;-86
2023/01/24 10:22:32;;;;;;;4.90;4.00;;;16.00;46.90;;;;;;5037686;28;20413;-86
2023/01/24 10:25:18;;;;;;;4.30;3.67;;;16.00;46.90;;;;;;5036914;28;20477;-86
2023/01/24 10:27:48;;;;;;;4.63;3.40;;;16.00;46.70;;;;;;5034822;28;20438;-86
2023/01/24 10:30:26;;;;;;;6.53;4.40;;;16.00;46.80;;;;;;5034613;28;20417;-86
2023/01/24 10:32:59;;;;;;;5.27;4.10;;;16.00;46.50;;;;;;5035664;28;20414;-86
2023/01/24 10:35:39;;;;;;;4.07;3.50;;;16.00;46.20;;;;;;5035113;28;20406;-86
2023/01/24 10:38:10;;;;;;;4.90;3.67;;;16.00;46.10;;;;;;5035897;28;20434;-85
2023/01/24 10:40:48;;;;;;;5.57;4.27;;;16.00;45.90;;;;;;5034863;28;20790;-85
2023/01/24 10:43:16;;;;;;;5.95;3.70;;;16.00;45.80;;;;;;5034953;28;20453;-85
2023/01/24 10:46:11;;;;;;;4.10;3.70;;;16.00;45.90;;;;;;5034338;28;20476;-86
2023/01/24 10:48:44;;;;;;;6.63;3.23;;;16.00;46.00;;;;;;5034761;28;20942;-86
2023/01/24 10:51:16;;;;;;;5.10;3.50;;;16.00;46.10;;;;;;5034353;28;20453;-85
2023/01/24 10:53:43;;;;;;;4.63;3.77;;;16.00;46.20;;;;;;5034893;28;20810;-84
2023/01/24 10:56:10;;;;;;;3.93;3.53;;;16.00;46.00;;;;;;5035054;28;20446;-86
2023/01/24 10:58:40;;;;;;;4.93;4.07;;;16.00;46.10;;;;;;5034101;28;20822;-82
2023/01/24 11:01:18;;;;;;;5.80;4.00;;;16.00;46.10;;;;;;5034853;28;20882;-83
2023/01/24 11:03:49;;;;;;;5.50;3.90;;;16.00;46.00;;;;;;5033295;28;21031;-83
2023/01/24 11:06:33;;;;;;;4.70;4.07;;;16.00;45.90;;;;;;5034325;28;20410;-82
2023/01/24 11:09:14;;;;;;;5.90;4.43;;;16.00;46.00;;;;;;5033351;28;20446;-82
2023/01/24 11:11:48;;;;;;;4.37;3.47;;;16.00;46.10;;;;;;5033330;28;20894;-83
2023/01/24 11:14:23;;;;;;;5.17;3.83;;;16.00;46.10;;;;;;5033474;28;20422;-83
2023/01/24 11:16:53;;;;;;;6.37;3.50;;;16.00;46.10;;;;;;5035021;28;20420;-83
2023/01/24 11:19:35;;;;;;;5.10;3.70;;;16.00;46.10;;;;;;5033409;28;20945;-83
2023/01/24 11:22:18;;;;;;;4.40;4.00;;;16.10;46.20;;;;;;5038798;28;20410;-83
2023/01/24 11:24:45;;;;;;;5.40;4.23;;;16.10;45.90;;;;;;5038417;28;20884;-82
2023/01/24 11:27:19;;;;;;;4.83;3.80;;;16.10;45.90;;;;;;5037155;28;20418;-83
2023/01/24 11:30:03;;;;;;;5.10;3.90;;;16.10;45.90;;;;;;5036488;28;20835;-82
2023/01/24 11:32:37;;;;;;;5.00;3.90;;;16.10;45.70;;;;;;5037987;28;20398;-83
2023/01/24 11:35:20;;;;;;;5.00;3.80;;;16.10;45.60;;;;;;5036945;28;20936;-84
2023/01/24 11:38:11;;;;;;;7.33;3.90;;;16.10;45.60;;;;;;5038002;28;20503;-83
2023/01/24 11:40:44;;;;;;;5.37;3.90;;;16.10;45.70;;;;;;5038108;28;20448;-82
2023/01/24 11:43:54;;;;;;;5.00;3.93;;;16.10;45.80;;;;;;5036806;28;20406;-83
2023/01/24 11:46:41;;;;;;;5.40;3.97;;;16.10;45.80;;;;;;5037920;28;20410;-82
2023/01/24 11:49:10;;;;;;;5.80;3.90;;;16.10;45.80;;;;;;5038010;28;20825;-82
2023/01/24 11:51:50;;;;;;;5.87;4.13;;;16.10;45.80;;;;;;5036657;28;20472;-82
2023/01/24 11:54:18;;;;;;;4.67;3.63;;;16.10;45.70;;;;;;5037614;28;20493;-82
2023/01/24 11:57:00;;;;;;;4.73;3.53;;;16.10;45.60;;;;;;5037608;28;20417;-82
2023/01/24 11:59:34;;;;;;;4.67;4.03;;;16.10;45.20;;;;;;5036298;28;20438;-82
2023/01/24 12:02:25;;;;;;;5.93;3.60;;;16.10;45.50;;;;;;5036153;28;20517;-83
2023/01/24 12:05:28;;;;;;;5.07;3.90;;;16.10;44.80;;;;;;5035860;28;20462;-83
2023/01/24 12:08:24;;;;;;;4.47;3.70;;;16.00;44.70;;;;;;5037460;28;20426;-83
2023/01/24 12:11:12;;;;;;;4.00;3.30;;;16.00;44.80;;;;;;5037322;28;20394;-81
2023/01/24 12:14:05;;;;;;;4.67;3.73;;;16.00;44.90;;;;;;5035611;28;20406;-82
2023/01/24 12:17:02;;;;;;;5.87;3.83;;;16.00;45.00;;;;;;5035747;28;20414;-80
2023/01/24 12:20:15;;;;;;;5.30;3.63;;;16.00;45.20;;;;;;5035023;28;20434;-82
2023/01/24 12:22:41;;;;;;;5.23;3.97;;;16.00;45.30;;;;;;5031440;28;20774;-83
2023/01/24 12:25:26;;;;;;;6.77;4.43;;;16.00;45.40;;;;;;5037149;28;20457;-87
2023/01/24 12:27:55;;;;;;;4.77;3.50;;;16.00;45.40;;;;;;5035550;28;20442;-84
2023/01/24 12:30:37;;;;;;;6.03;4.40;;;16.00;45.90;;;;;;5035385;28;20882;-81
2023/01/24 12:33:25;;;;;;;12.47;7.10;;;16.10;51.40;;;;;;5034277;28;20410;-84
2023/01/24 12:35:58;;;;;;;8.63;5.87;;;16.50;61.50;;;;;;5036663;28;20395;-83
2023/01/24 12:38:38;;;;;;;8.53;6.53;;;16.70;57.30;;;;;;5036208;28;20422;-84
2023/01/24 12:41:39;;;;;;;8.30;6.43;;;17.00;57.70;;;;;;5037302;28;20417;-83
2023/01/24 12:44:30;;;;;;;10.17;7.50;;;17.30;57.40;;;;;;5037670;28;20476;-84
2023/01/24 12:47:30;;;;;;;9.83;6.37;;;17.70;57.60;;;;;;5035106;28;20788;-82
2023/01/24 12:50:14;;;;;;;9.50;7.17;;;18.00;56.70;;;;;;5021265;28;20406;-81
2023/01/24 12:52:47;;;;;;;15.80;9.00;;;18.20;55.50;;;;;;5036686;28;20950;-84
2023/01/24 12:55:27;;;;;;;24.77;11.50;;;18.30;55.90;;;;;;5036136;28;20452;-82
2023/01/24 12:58:01;;;;;;;66.03;24.60;;;18.40;56.30;;;;;;5035640;28;20492;-81
2023/01/24 13:00:43;;;;;;;52.33;20.97;;;18.50;57.30;;;;;;5035596;28;20925;-83
2023/01/24 13:03:28;;;;;;;40.07;13.30;;;18.50;55.60;;;;;;5034934;28;20934;-83
2023/01/24 13:06:08;;;;;;;33.13;14.43;;;18.50;52.70;;;;;;5034753;28;20418;-83
2023/01/24 13:09:02;;;;;;;29.97;13.90;;;18.50;51.50;;;;;;5035082;28;20837;-83
2023/01/24 13:11:28;;;;;;;40.93;13.80;;;18.40;51.00;;;;;;5034540;28;20395;-83
2023/01/24 13:14:20;;;;;;;30.97;14.63;;;18.30;50.80;;;;;;5035837;28;20497;-83
2023/01/24 13:17:07;;;;;;;23.53;12.90;;;18.30;50.70;;;;;;5035908;28;20179;-83
2023/01/24 14:21:52;;;;;;;17.53;12.50;;;3.50;71.20;;;;;;5092391;28;20498;-84
2023/01/24 14:24:46;;;;;;;24.33;21.77;;;6.20;89.10;;;;;;5092376;28;20397;-83
2023/01/24 14:27:28;;;;;;;16.70;15.10;;;8.80;92.40;;;;;;5091646;28;20507;-83
2023/01/24 14:30:34;;;;;;;9.33;8.40;;;9.90;94.00;;;;;;5071363;28;20478;-84
2023/01/24 14:33:27;;;;;;;9.00;7.07;;;10.70;94.20;;;;;;5071273;28;20401;-81
2023/01/24 14:36:27;;;;;;;7.30;6.40;;;11.10;92.40;;;;;;5071116;28;20396;-82
2023/01/24 14:39:17;;;;;;;9.77;6.67;;;11.80;83.40;;;;;;5071392;28;20522;-83
2023/01/24 14:41:50;;;;;;;7.33;6.63;;;12.60;70.80;;;;;;5070763;28;20432;-82
2023/01/24 14:44:30;;;;;;;6.70;5.57;;;13.20;66.00;;;;;;5071269;28;20576;-82
2023/01/24 14:47:05;;;;;;;7.47;6.00;;;13.70;62.50;;;;;;5071181;28;20400;-81
2023/01/24 14:49:35;;;;;;;7.03;5.40;;;14.20;59.80;;;;;;5071543;28;20416;-82
2023/01/24 14:52:02;;;;;;;7.10;5.17;;;14.50;58.30;;;;;;5072681;28;20412;-82
2023/01/24 14:54:28;;;;;;;6.40;4.40;;;14.80;56.80;;;;;;5071578;28;20405;-82